Time;durP1;ratioP1;P1;durP2;ratioP2;P2;SDS_P1;SDS_P2;PMS_P1;PMS_P2;Temp;Humidity;BMP_temperature;BMP_pressure;BME280_temperature;BME280_humidity;BME280_pressure;Samples;Min_cycle;Max_cycle;Signal;HPM_P1;HPM_P2
2023/06/07 00:00:23;;;;;;;3.88;2.30;;;;;;;;;;501691;29;1452;-74
2023/06/07 00:00:45;;;;;;;2.85;2.10;;;;;;;;;;500579;29;1442;-73
2023/06/07 00:01:08;;;;;;;3.17;2.20;;;;;;;;;;505536;28;1475;-74
2023/06/07 00:01:27;;;;;;;3.33;2.20;;;;;;;;;;511306;28;1264;-74
2023/06/07 00:01:46;;;;;;;3.00;2.08;;;;;;;;;;510256;28;1514;-74
2023/06/07 00:02:05;;;;;;;3.83;2.10;;;;;;;;;;509667;28;1754;-74
2023/06/07 00:02:32;;;;;;;4.90;2.20;;;;;;;;;;509755;28;1334;-74
2023/06/07 00:02:53;;;;;;;2.97;2.13;;;;;;;;;;509574;28;1422;-73
2023/06/07 00:03:13;;;;;;;2.75;2.00;;;;;;;;;;508742;28;1572;-73
2023/06/07 00:03:33;;;;;;;4.05;2.05;;;;;;;;;;509104;28;1355;-73
2023/06/07 00:03:54;;;;;;;2.88;2.10;;;;;;;;;;510737;28;1152;-74
2023/06/07 00:04:18;;;;;;;3.00;2.20;;;;;;;;;;511269;28;1184;-73
2023/06/07 00:04:39;;;;;;;2.65;2.10;;;;;;;;;;512284;28;955;-73
2023/06/07 00:04:55;;;;;;;2.88;2.20;;;;;;;;;;513225;28;1043;-73
2023/06/07 00:05:21;;;;;;;3.33;2.28;;;;;;;;;;514729;28;965;-73
2023/06/07 00:05:48;;;;;;;3.60;2.35;;;;;;;;;;517346;28;1318;-75
2023/06/07 00:06:12;;;;;;;3.97;2.17;;;;;;;;;;517851;28;954;-73
2023/06/07 00:06:28;;;;;;;3.42;2.30;;;;;;;;;;517759;28;1182;-73
2023/06/07 00:06:44;;;;;;;3.65;2.30;;;;;;;;;;515721;28;1544;-73
2023/06/07 00:07:02;;;;;;;3.97;2.28;;;;;;;;;;512510;28;1505;-74
2023/06/07 00:07:21;;;;;;;4.88;2.10;;;;;;;;;;512282;28;1105;-73
2023/06/07 00:07:48;;;;;;;4.55;2.30;;;;;;;;;;511976;28;1329;-75
2023/06/07 00:08:08;;;;;;;2.85;2.17;;;;;;;;;;512161;28;1122;-73
2023/06/07 00:08:26;;;;;;;3.47;2.42;;;;;;;;;;511939;28;1213;-73
2023/06/07 00:08:58;;;;;;;4.05;2.45;;;;;;;;;;513353;28;1327;-73
2023/06/07 00:09:14;;;;;;;4.20;2.40;;;;;;;;;;513284;28;1149;-75
2023/06/07 00:09:40;;;;;;;3.90;2.28;;;;;;;;;;512723;28;1287;-73
2023/06/07 00:10:12;;;;;;;3.60;2.28;;;;;;;;;;513007;28;1380;-73
2023/06/07 00:10:46;;;;;;;3.55;2.25;;;;;;;;;;511381;28;1487;-73
2023/06/07 00:11:11;;;;;;;3.78;2.17;;;;;;;;;;513207;28;1458;-74
2023/06/07 00:11:37;;;;;;;2.63;2.10;;;;;;;;;;513191;28;1061;-74
2023/06/07 00:11:56;;;;;;;3.00;2.13;;;;;;;;;;513380;28;1326;-75
2023/06/07 00:12:14;;;;;;;3.40;2.15;;;;;;;;;;513322;28;1501;-74
2023/06/07 00:12:36;;;;;;;3.30;2.20;;;;;;;;;;512432;28;1538;-74
2023/06/07 00:12:54;;;;;;;3.65;2.30;;;;;;;;;;513101;28;1041;-74
2023/06/07 00:13:13;;;;;;;4.18;2.30;;;;;;;;;;511540;28;1294;-74
2023/06/07 00:13:36;;;;;;;3.75;2.30;;;;;;;;;;511768;28;1522;-75
2023/06/07 00:14:01;;;;;;;3.80;2.30;;;;;;;;;;509609;28;1552;-74
2023/06/07 00:14:22;;;;;;;3.80;2.22;;;;;;;;;;510862;28;1010;-74
2023/06/07 00:14:43;;;;;;;3.17;2.20;;;;;;;;;;510617;28;1048;-74
2023/06/07 00:15:08;;;;;;;3.22;2.30;;;;;;;;;;511842;28;1357;-74
2023/06/07 00:15:26;;;;;;;2.83;2.20;;;;;;;;;;514532;28;1382;-75
2023/06/07 00:15:44;;;;;;;3.97;2.20;;;;;;;;;;512759;28;1416;-74
2023/06/07 00:16:05;;;;;;;3.67;2.13;;;;;;;;;;513454;28;1080;-74
2023/06/07 00:16:23;;;;;;;3.67;2.20;;;;;;;;;;513115;28;1270;-74
2023/06/07 00:16:54;;;;;;;5.03;2.35;;;;;;;;;;513385;28;1066;-74
2023/06/07 00:17:15;;;;;;;3.17;2.33;;;;;;;;;;515043;28;1504;-74
2023/06/07 00:17:40;;;;;;;3.80;2.30;;;;;;;;;;512694;28;1456;-75
2023/06/07 00:18:01;;;;;;;3.20;2.20;;;;;;;;;;514920;28;1495;-73
2023/06/07 00:18:19;;;;;;;3.55;2.22;;;;;;;;;;514883;28;1250;-73
2023/06/07 00:18:43;;;;;;;3.70;2.28;;;;;;;;;;512676;28;1394;-73
2023/06/07 00:19:08;;;;;;;3.33;2.13;;;;;;;;;;513052;28;1388;-73
2023/06/07 00:19:27;;;;;;;3.40;2.10;;;;;;;;;;513293;28;1081;-73
2023/06/07 00:19:52;;;;;;;3.53;2.30;;;;;;;;;;512677;28;1617;-73
2023/06/07 00:20:17;;;;;;;3.92;2.35;;;;;;;;;;512917;28;1097;-74
2023/06/07 00:20:32;;;;;;;4.00;2.40;;;;;;;;;;513209;28;1373;-74
2023/06/07 00:20:51;;;;;;;3.73;2.33;;;;;;;;;;514095;28;1311;-72
2023/06/07 00:21:48;;;;;;;3.95;2.20;;;;;;;;;;511042;28;1406;-74
2023/06/07 00:22:08;;;;;;;3.85;2.35;;;;;;;;;;507482;28;924;-74
2023/06/07 00:22:47;;;;;;;3.00;2.20;;;;;;;;;;511876;28;1529;-74
2023/06/07 00:23:05;;;;;;;3.55;2.25;;;;;;;;;;512367;28;1426;-74
2023/06/07 00:23:28;;;;;;;4.40;2.40;;;;;;;;;;513689;28;1074;-73
2023/06/07 00:23:50;;;;;;;3.05;2.13;;;;;;;;;;511535;28;1543;-73
2023/06/07 00:24:08;;;;;;;3.42;2.58;;;;;;;;;;509450;28;1039;-73
2023/06/07 00:24:32;;;;;;;4.30;2.67;;;;;;;;;;510649;28;1535;-73
2023/06/07 00:25:10;;;;;;;4.20;2.30;;;;;;;;;;510878;28;1285;-73
2023/06/07 00:25:30;;;;;;;4.05;2.30;;;;;;;;;;503554;28;1020;-73
2023/06/07 00:26:02;;;;;;;3.85;2.47;;;;;;;;;;511942;28;1353;-73
2023/06/07 00:26:20;;;;;;;3.75;2.22;;;;;;;;;;513497;28;1074;-73
2023/06/07 00:26:47;;;;;;;3.13;2.20;;;;;;;;;;513078;28;1358;-74
2023/06/07 00:27:05;;;;;;;3.05;2.20;;;;;;;;;;512715;28;1493;-73
2023/06/07 00:27:26;;;;;;;3.60;2.30;;;;;;;;;;512640;28;1352;-73
2023/06/07 00:27:43;;;;;;;4.35;2.40;;;;;;;;;;514509;28;1509;-75
2023/06/07 00:28:08;;;;;;;3.80;2.30;;;;;;;;;;515369;28;1526;-73
2023/06/07 00:28:23;;;;;;;4.68;2.10;;;;;;;;;;512704;28;1491;-74
2023/06/07 00:28:39;;;;;;;4.88;2.10;;;;;;;;;;508954;28;1351;-74
2023/06/07 00:28:54;;;;;;;3.47;2.20;;;;;;;;;;510456;28;1280;-74
2023/06/07 00:29:14;;;;;;;2.83;2.10;;;;;;;;;;511873;28;1209;-72
2023/06/07 00:29:34;;;;;;;3.10;2.05;;;;;;;;;;511177;28;1542;-74
2023/06/07 00:29:50;;;;;;;3.42;2.10;;;;;;;;;;509212;28;1950;-74
2023/06/07 00:30:11;;;;;;;3.22;2.17;;;;;;;;;;509066;28;1348;-74
2023/06/07 00:30:35;;;;;;;2.83;2.20;;;;;;;;;;511630;28;1525;-72
2023/06/07 00:30:59;;;;;;;3.20;2.30;;;;;;;;;;511665;28;1048;-73
2023/06/07 00:31:14;;;;;;;3.25;2.28;;;;;;;;;;509085;28;1528;-73
2023/06/07 00:31:44;;;;;;;3.37;2.27;;;;;;;;;;512386;28;1176;-73
2023/06/07 00:32:08;;;;;;;3.22;2.25;;;;;;;;;;513807;28;1559;-73
2023/06/07 00:32:32;;;;;;;3.45;2.30;;;;;;;;;;513643;28;1240;-73
2023/06/07 00:32:48;;;;;;;4.38;2.53;;;;;;;;;;513112;28;1515;-73
2023/06/07 00:33:18;;;;;;;3.70;2.40;;;;;;;;;;511620;28;1397;-73
2023/06/07 00:33:44;;;;;;;4.47;2.30;;;;;;;;;;512943;28;1081;-73
2023/06/07 00:34:00;;;;;;;5.07;2.30;;;;;;;;;;510855;28;1365;-74
2023/06/07 00:34:21;;;;;;;6.20;2.30;;;;;;;;;;509618;28;1498;-72
2023/06/07 00:34:37;;;;;;;4.15;2.30;;;;;;;;;;508875;28;1510;-73
2023/06/07 00:34:53;;;;;;;3.72;2.30;;;;;;;;;;509605;28;1546;-74
2023/06/07 00:35:13;;;;;;;3.97;2.30;;;;;;;;;;510118;28;1475;-74
2023/06/07 00:35:34;;;;;;;3.50;2.30;;;;;;;;;;508004;28;1325;-74
2023/06/07 00:35:52;;;;;;;4.82;2.28;;;;;;;;;;510288;28;1826;-75
2023/06/07 00:36:08;;;;;;;3.80;2.05;;;;;;;;;;508313;28;1502;-72
2023/06/07 00:36:28;;;;;;;2.80;2.00;;;;;;;;;;509275;28;1103;-73
2023/06/07 00:36:54;;;;;;;3.35;2.22;;;;;;;;;;509434;28;1620;-73
2023/06/07 00:37:21;;;;;;;3.10;2.17;;;;;;;;;;509176;28;1409;-74
2023/06/07 00:37:43;;;;;;;3.83;2.58;;;;;;;;;;511665;28;1483;-72
2023/06/07 00:38:02;;;;;;;3.97;2.40;;;;;;;;;;511789;28;1409;-73
2023/06/07 00:38:24;;;;;;;3.45;2.20;;;;;;;;;;513909;28;979;-73
2023/06/07 00:38:45;;;;;;;4.15;2.30;;;;;;;;;;512302;28;1307;-74
2023/06/07 00:39:05;;;;;;;2.95;2.25;;;;;;;;;;513046;28;1490;-74
2023/06/07 00:39:24;;;;;;;3.33;2.40;;;;;;;;;;511068;28;1542;-73
2023/06/07 00:39:42;;;;;;;3.80;2.50;;;;;;;;;;511416;28;1313;-73
2023/06/07 00:40:00;;;;;;;3.60;2.42;;;;;;;;;;511371;28;1465;-74
2023/06/07 00:40:27;;;;;;;3.90;2.42;;;;;;;;;;512094;28;1053;-73
2023/06/07 00:41:06;;;;;;;3.38;2.33;;;;;;;;;;511466;28;1567;-74
2023/06/07 00:41:30;;;;;;;3.83;2.20;;;;;;;;;;511400;28;1227;-75
2023/06/07 00:41:46;;;;;;;3.05;2.00;;;;;;;;;;513098;28;1129;-74
2023/06/07 00:42:05;;;;;;;2.87;2.10;;;;;;;;;;513543;28;1250;-74
2023/06/07 00:42:24;;;;;;;3.20;2.13;;;;;;;;;;513018;28;1089;-75
2023/06/07 00:42:39;;;;;;;3.15;2.20;;;;;;;;;;513437;28;1268;-74
2023/06/07 00:43:01;;;;;;;4.25;2.30;;;;;;;;;;513539;28;1428;-74
2023/06/07 00:43:24;;;;;;;3.63;2.35;;;;;;;;;;511388;28;1513;-73
2023/06/07 00:43:46;;;;;;;2.83;2.30;;;;;;;;;;510732;28;1038;-73
2023/06/07 00:44:12;;;;;;;3.47;2.40;;;;;;;;;;511418;28;1366;-73
2023/06/07 00:44:41;;;;;;;3.90;2.10;;;;;;;;;;511242;28;1370;-73
2023/06/07 00:45:17;;;;;;;4.95;2.40;;;;;;;;;;510500;28;1224;-73
2023/06/07 00:45:38;;;;;;;4.15;2.50;;;;;;;;;;505059;28;1608;-74
2023/06/07 00:45:57;;;;;;;3.78;2.38;;;;;;;;;;509597;28;1325;-74
2023/06/07 00:46:18;;;;;;;3.35;2.30;;;;;;;;;;511814;28;1634;-74
2023/06/07 00:46:44;;;;;;;3.08;2.30;;;;;;;;;;510643;28;1361;-75
2023/06/07 00:47:06;;;;;;;2.95;2.20;;;;;;;;;;510050;28;1319;-74
2023/06/07 00:47:24;;;;;;;4.03;2.30;;;;;;;;;;509978;28;1350;-74
2023/06/07 00:47:40;;;;;;;4.65;2.40;;;;;;;;;;510888;28;1376;-73
2023/06/07 00:47:58;;;;;;;4.18;2.40;;;;;;;;;;510554;28;1334;-74
2023/06/07 00:48:17;;;;;;;3.85;2.40;;;;;;;;;;510661;28;1562;-75
2023/06/07 00:48:33;;;;;;;3.03;2.38;;;;;;;;;;511525;28;1453;-75
2023/06/07 00:49:09;;;;;;;3.20;2.20;;;;;;;;;;511435;28;1231;-74
2023/06/07 00:49:27;;;;;;;2.47;2.20;;;;;;;;;;513022;28;979;-73
2023/06/07 00:49:47;;;;;;;3.10;2.40;;;;;;;;;;512754;28;1981;-75
2023/06/07 00:50:17;;;;;;;3.05;2.35;;;;;;;;;;515020;28;1140;-73
2023/06/07 00:50:35;;;;;;;4.97;2.35;;;;;;;;;;515441;28;1532;-74
2023/06/07 00:50:55;;;;;;;3.95;2.15;;;;;;;;;;513327;28;1486;-73
2023/06/07 00:51:18;;;;;;;2.55;2.00;;;;;;;;;;512880;28;1199;-74
2023/06/07 00:51:39;;;;;;;2.42;2.10;;;;;;;;;;510851;28;1494;-74
2023/06/07 00:52:00;;;;;;;4.05;2.28;;;;;;;;;;508708;28;1554;-74
2023/06/07 00:52:19;;;;;;;3.90;2.30;;;;;;;;;;508204;28;1458;-74
2023/06/07 00:52:38;;;;;;;4.35;2.28;;;;;;;;;;508131;28;1463;-74
2023/06/07 00:53:00;;;;;;;3.57;2.40;;;;;;;;;;510286;28;1202;-73
2023/06/07 00:53:42;;;;;;;4.40;2.13;;;;;;;;;;510931;28;1094;-72
2023/06/07 00:54:05;;;;;;;2.78;2.22;;;;;;;;;;508191;28;1540;-73
2023/06/07 00:54:21;;;;;;;3.03;2.20;;;;;;;;;;507976;28;1323;-74
2023/06/07 00:54:40;;;;;;;3.60;2.30;;;;;;;;;;509159;28;1185;-74
2023/06/07 00:55:08;;;;;;;3.65;2.20;;;;;;;;;;515135;28;959;-74
2023/06/07 00:55:25;;;;;;;4.65;2.33;;;;;;;;;;512932;28;1378;-73
2023/06/07 00:55:43;;;;;;;4.85;2.33;;;;;;;;;;513777;28;1136;-74
2023/06/07 00:55:59;;;;;;;4.53;2.22;;;;;;;;;;513546;28;1129;-73
2023/06/07 00:56:15;;;;;;;3.42;2.17;;;;;;;;;;514932;28;929;-74
2023/06/07 00:56:36;;;;;;;3.00;2.08;;;;;;;;;;515426;28;1337;-73
2023/06/07 00:56:58;;;;;;;3.40;2.20;;;;;;;;;;513249;28;1356;-73
2023/06/07 00:57:17;;;;;;;3.30;2.33;;;;;;;;;;512370;28;1198;-73
2023/06/07 00:57:44;;;;;;;3.03;2.13;;;;;;;;;;510370;28;1337;-72
2023/06/07 00:58:00;;;;;;;3.80;2.15;;;;;;;;;;510312;28;1373;-73
2023/06/07 00:58:38;;;;;;;4.97;2.25;;;;;;;;;;510513;28;1468;-73
2023/06/07 00:58:53;;;;;;;5.38;2.30;;;;;;;;;;511353;28;1302;-74
2023/06/07 00:59:12;;;;;;;4.15;2.30;;;;;;;;;;512944;28;969;-73
2023/06/07 00:59:34;;;;;;;3.72;2.40;;;;;;;;;;513724;28;1186;-73
2023/06/07 00:59:55;;;;;;;2.67;2.42;;;;;;;;;;513143;28;1409;-74
2023/06/07 01:00:18;;;;;;;3.00;2.28;;;;;;;;;;511349;28;1326;-73
2023/06/07 01:00:34;;;;;;;3.25;2.20;;;;;;;;;;512856;28;1353;-74
2023/06/07 01:00:58;;;;;;;2.70;2.10;;;;;;;;;;514142;28;1348;-73
2023/06/07 01:01:27;;;;;;;3.50;2.38;;;;;;;;;;511276;28;1325;-73
2023/06/07 01:01:51;;;;;;;3.72;2.38;;;;;;;;;;512561;28;1461;-74
2023/06/07 01:02:16;;;;;;;3.83;2.45;;;;;;;;;;511602;28;1555;-73
2023/06/07 01:02:35;;;;;;;3.60;2.20;;;;;;;;;;511326;28;1460;-74
2023/06/07 01:02:51;;;;;;;3.35;2.10;;;;;;;;;;513440;28;1367;-73
2023/06/07 01:03:22;;;;;;;3.45;2.30;;;;;;;;;;511604;28;1329;-73
2023/06/07 01:03:44;;;;;;;3.35;2.13;;;;;;;;;;511264;28;1076;-73
2023/06/07 01:04:06;;;;;;;4.25;2.13;;;;;;;;;;512254;28;1042;-72
2023/06/07 01:04:58;;;;;;;3.53;2.17;;;;;;;;;;513872;28;1160;-74
2023/06/07 01:05:17;;;;;;;3.13;2.20;;;;;;;;;;517965;28;1227;-73
2023/06/07 01:05:50;;;;;;;2.80;2.20;;;;;;;;;;515112;28;1599;-75
2023/06/07 01:06:24;;;;;;;3.13;2.22;;;;;;;;;;516497;28;1307;-73
2023/06/07 01:06:49;;;;;;;2.80;2.25;;;;;;;;;;515119;28;1406;-74
2023/06/07 01:07:17;;;;;;;3.30;2.15;;;;;;;;;;512608;28;1473;-73
2023/06/07 01:07:33;;;;;;;3.00;2.30;;;;;;;;;;512823;28;1449;-73
2023/06/07 01:07:54;;;;;;;3.20;2.15;;;;;;;;;;512411;28;1380;-74
2023/06/07 01:08:25;;;;;;;3.13;2.30;;;;;;;;;;511810;28;1343;-72
2023/06/07 01:08:46;;;;;;;3.80;2.30;;;;;;;;;;510619;28;1341;-72
2023/06/07 01:09:16;;;;;;;3.10;2.30;;;;;;;;;;510130;28;1083;-73
2023/06/07 01:09:31;;;;;;;3.20;2.20;;;;;;;;;;511800;28;1411;-76
2023/06/07 01:09:56;;;;;;;4.70;2.30;;;;;;;;;;510911;28;1981;-74
2023/06/07 01:10:20;;;;;;;3.88;2.45;;;;;;;;;;512190;28;1375;-74
2023/06/07 01:10:36;;;;;;;3.25;2.20;;;;;;;;;;512791;28;1094;-73
2023/06/07 01:11:08;;;;;;;3.20;2.25;;;;;;;;;;513576;28;1113;-73
2023/06/07 01:11:25;;;;;;;3.88;2.25;;;;;;;;;;513327;28;1464;-73
2023/06/07 01:11:44;;;;;;;4.47;2.42;;;;;;;;;;513783;28;1175;-74
2023/06/07 01:12:05;;;;;;;4.20;2.58;;;;;;;;;;514208;28;1473;-73
2023/06/07 01:12:23;;;;;;;5.45;2.33;;;;;;;;;;513331;28;1493;-74
2023/06/07 01:12:49;;;;;;;4.68;2.30;;;;;;;;;;513534;28;1338;-73
2023/06/07 01:13:07;;;;;;;3.47;2.25;;;;;;;;;;513868;28;1070;-74
2023/06/07 01:13:26;;;;;;;3.20;2.20;;;;;;;;;;513711;28;1346;-74
2023/06/07 01:13:47;;;;;;;3.72;2.25;;;;;;;;;;514151;28;1308;-74
2023/06/07 01:14:12;;;;;;;3.72;2.30;;;;;;;;;;514145;28;911;-74
2023/06/07 01:14:39;;;;;;;3.72;2.38;;;;;;;;;;516276;28;1554;-73
2023/06/07 01:14:56;;;;;;;3.40;2.20;;;;;;;;;;515909;28;970;-74
2023/06/07 01:15:15;;;;;;;3.20;2.30;;;;;;;;;;513474;28;1217;-73
2023/06/07 01:15:35;;;;;;;3.45;2.30;;;;;;;;;;513673;28;1366;-73
2023/06/07 01:16:03;;;;;;;2.45;2.03;;;;;;;;;;512709;28;1520;-72
2023/06/07 01:16:19;;;;;;;3.92;2.33;;;;;;;;;;511708;28;1320;-72
2023/06/07 01:16:43;;;;;;;4.30;2.30;;;;;;;;;;511518;28;1667;-73
2023/06/07 01:17:08;;;;;;;4.78;2.22;;;;;;;;;;512342;28;1062;-73
2023/06/07 01:17:40;;;;;;;;;;;;;;;;;;;;;
2023/06/07 01:17:57;;;;;;;3.00;2.10;;;;;;;;;;510798;28;982;-73
2023/06/07 01:18:25;;;;;;;4.20;2.28;;;;;;;;;;513560;28;1204;-73
2023/06/07 01:18:58;;;;;;;2.67;2.20;;;;;;;;;;513823;28;1539;-74
2023/06/07 01:19:27;;;;;;;3.40;2.10;;;;;;;;;;513755;28;1491;-73
2023/06/07 01:19:55;;;;;;;3.20;2.20;;;;;;;;;;513440;28;1379;-73
2023/06/07 01:20:43;;;;;;;3.42;2.35;;;;;;;;;;513656;28;959;-73
2023/06/07 01:21:00;;;;;;;3.30;2.22;;;;;;;;;;509990;28;1417;-75
2023/06/07 01:21:25;;;;;;;3.95;2.30;;;;;;;;;;515671;28;1123;-72
2023/06/07 01:22:10;;;;;;;3.65;2.13;;;;;;;;;;513269;28;1362;-73
2023/06/07 01:22:28;;;;;;;3.10;2.30;;;;;;;;;;513006;28;1369;-73
2023/06/07 01:22:53;;;;;;;3.47;2.20;;;;;;;;;;511694;28;1568;-73
2023/06/07 01:23:14;;;;;;;3.70;2.22;;;;;;;;;;512223;28;1138;-73
2023/06/07 01:23:42;;;;;;;2.70;2.20;;;;;;;;;;511775;28;1085;-73
2023/06/07 01:23:59;;;;;;;3.00;2.35;;;;;;;;;;513703;28;1141;-74
2023/06/07 01:24:29;;;;;;;3.50;2.38;;;;;;;;;;512497;28;1497;-73
2023/06/07 01:24:55;;;;;;;3.05;2.28;;;;;;;;;;515986;28;1305;-73
2023/06/07 01:25:13;;;;;;;3.50;2.35;;;;;;;;;;513557;28;958;-73
2023/06/07 01:25:32;;;;;;;3.13;2.33;;;;;;;;;;513009;28;1390;-75
2023/06/07 01:25:47;;;;;;;4.03;2.40;;;;;;;;;;512477;28;1509;-73
2023/06/07 01:26:06;;;;;;;3.80;2.22;;;;;;;;;;512552;28;1210;-73
2023/06/07 01:26:31;;;;;;;3.60;2.20;;;;;;;;;;512707;28;1158;-73
2023/06/07 01:26:57;;;;;;;3.78;2.30;;;;;;;;;;513287;28;1332;-73
2023/06/07 01:27:24;;;;;;;4.18;2.40;;;;;;;;;;514095;28;1153;-73
2023/06/07 01:27:52;;;;;;;3.83;2.47;;;;;;;;;;514529;28;1348;-73
2023/06/07 01:28:10;;;;;;;5.18;2.45;;;;;;;;;;511615;28;1317;-76
2023/06/07 01:28:41;;;;;;;4.65;2.40;;;;;;;;;;511578;28;1181;-73
2023/06/07 01:29:06;;;;;;;3.47;2.28;;;;;;;;;;513034;28;1323;-74
2023/06/07 01:29:36;;;;;;;3.22;2.40;;;;;;;;;;514263;28;1373;-73
2023/06/07 01:29:51;;;;;;;4.22;2.40;;;;;;;;;;512290;28;2596;-73
2023/06/07 01:30:12;;;;;;;4.53;2.30;;;;;;;;;;513874;28;998;-74
2023/06/07 01:30:40;;;;;;;3.95;2.30;;;;;;;;;;514777;28;1635;-74
2023/06/07 01:31:00;;;;;;;3.70;2.28;;;;;;;;;;514260;28;1303;-74
2023/06/07 01:31:16;;;;;;;3.22;2.30;;;;;;;;;;511037;28;1355;-73
2023/06/07 01:31:40;;;;;;;3.15;2.30;;;;;;;;;;510420;28;1079;-74
2023/06/07 01:32:13;;;;;;;4.20;2.28;;;;;;;;;;512253;28;1328;-73
2023/06/07 01:32:32;;;;;;;3.80;2.50;;;;;;;;;;512613;28;1671;-73
2023/06/07 01:32:48;;;;;;;3.67;2.40;;;;;;;;;;511861;28;1263;-74
2023/06/07 01:33:10;;;;;;;4.05;2.40;;;;;;;;;;513549;28;1527;-73
2023/06/07 01:33:35;;;;;;;4.00;2.30;;;;;;;;;;513895;28;1224;-73
2023/06/07 01:33:51;;;;;;;3.47;2.33;;;;;;;;;;512563;28;1424;-74
2023/06/07 01:34:10;;;;;;;3.22;2.53;;;;;;;;;;513044;28;1026;-74
2023/06/07 01:34:33;;;;;;;3.78;2.55;;;;;;;;;;512863;28;1329;-73
2023/06/07 01:34:58;;;;;;;4.60;2.47;;;;;;;;;;512643;28;1426;-73
2023/06/07 01:35:17;;;;;;;3.97;2.38;;;;;;;;;;514452;28;1129;-73
2023/06/07 01:35:41;;;;;;;2.85;2.30;;;;;;;;;;513197;28;1544;-74
2023/06/07 01:36:04;;;;;;;3.60;2.28;;;;;;;;;;512811;28;1438;-72
2023/06/07 01:36:22;;;;;;;3.45;2.10;;;;;;;;;;512546;28;1124;-73
2023/06/07 01:36:43;;;;;;;2.55;2.22;;;;;;;;;;511336;28;1406;-74
2023/06/07 01:37:02;;;;;;;3.33;2.38;;;;;;;;;;512961;28;1082;-73
2023/06/07 01:37:33;;;;;;;4.25;2.45;;;;;;;;;;513037;28;1322;-74
2023/06/07 01:37:55;;;;;;;4.05;2.40;;;;;;;;;;513640;28;1368;-73
2023/06/07 01:38:22;;;;;;;4.15;2.60;;;;;;;;;;512474;28;1441;-74
2023/06/07 01:38:39;;;;;;;3.65;2.35;;;;;;;;;;513071;28;1548;-74
2023/06/07 01:38:56;;;;;;;3.17;2.30;;;;;;;;;;513113;28;1423;-75
2023/06/07 01:39:38;;;;;;;3.60;2.40;;;;;;;;;;512663;28;1189;-74
2023/06/07 01:40:12;;;;;;;3.50;2.45;;;;;;;;;;512711;28;1140;-73
2023/06/07 01:40:34;;;;;;;3.72;2.30;;;;;;;;;;514273;28;1603;-73
2023/06/07 01:40:52;;;;;;;3.35;2.30;;;;;;;;;;515785;28;1105;-73
2023/06/07 01:41:11;;;;;;;3.63;2.47;;;;;;;;;;517400;28;1405;-73
2023/06/07 01:41:38;;;;;;;3.97;2.40;;;;;;;;;;515930;28;1328;-72
2023/06/07 01:42:03;;;;;;;3.70;2.60;;;;;;;;;;514557;28;1506;-74
2023/06/07 01:42:28;;;;;;;4.78;2.38;;;;;;;;;;505672;28;1021;-73
2023/06/07 01:42:45;;;;;;;4.38;2.38;;;;;;;;;;513072;28;1580;-72
2023/06/07 01:43:13;;;;;;;3.40;2.13;;;;;;;;;;514835;28;1084;-72
2023/06/07 01:43:39;;;;;;;2.90;2.30;;;;;;;;;;515898;28;1473;-73
2023/06/07 01:43:58;;;;;;;3.97;2.50;;;;;;;;;;516020;28;1006;-73
2023/06/07 01:44:25;;;;;;;4.00;2.50;;;;;;;;;;515520;28;1061;-73
2023/06/07 01:44:50;;;;;;;3.22;2.40;;;;;;;;;;513917;28;1456;-74
2023/06/07 01:45:12;;;;;;;3.40;2.50;;;;;;;;;;513288;28;1556;-72
2023/06/07 01:45:31;;;;;;;3.55;2.35;;;;;;;;;;515689;28;1364;-73
2023/06/07 01:45:47;;;;;;;3.60;2.20;;;;;;;;;;514151;28;1425;-73
2023/06/07 01:46:05;;;;;;;3.38;2.40;;;;;;;;;;513710;28;1203;-74
2023/06/07 01:46:27;;;;;;;3.45;2.40;;;;;;;;;;513069;28;1204;-73
2023/06/07 01:46:46;;;;;;;4.68;2.40;;;;;;;;;;513540;28;1468;-73
2023/06/07 01:47:11;;;;;;;3.83;2.40;;;;;;;;;;513650;28;1405;-73
2023/06/07 01:47:35;;;;;;;2.85;2.20;;;;;;;;;;512935;28;1318;-73
2023/06/07 01:47:55;;;;;;;3.15;2.30;;;;;;;;;;512343;28;1510;-73
2023/06/07 01:48:16;;;;;;;3.15;2.30;;;;;;;;;;513053;28;1183;-73
2023/06/07 01:48:32;;;;;;;3.70;2.35;;;;;;;;;;512795;28;1094;-75
2023/06/07 01:48:59;;;;;;;3.67;2.30;;;;;;;;;;512396;28;1430;-73
2023/06/07 01:49:17;;;;;;;2.53;2.20;;;;;;;;;;511008;28;1258;-73
2023/06/07 01:49:35;;;;;;;3.58;2.30;;;;;;;;;;511818;28;1104;-72
2023/06/07 01:49:59;;;;;;;3.83;2.40;;;;;;;;;;513610;28;1912;-73
2023/06/07 01:50:22;;;;;;;3.65;2.42;;;;;;;;;;513903;28;1538;-74
2023/06/07 01:51:04;;;;;;;4.20;2.50;;;;;;;;;;513200;28;1327;-73
2023/06/07 01:51:27;;;;;;;3.45;2.30;;;;;;;;;;515513;28;1065;-73
2023/06/07 01:52:24;;;;;;;4.32;2.40;;;;;;;;;;516332;28;1316;-73
2023/06/07 01:52:49;;;;;;;4.25;2.45;;;;;;;;;;514934;28;1555;-74
2023/06/07 01:53:07;;;;;;;4.82;2.47;;;;;;;;;;513571;28;1355;-73
2023/06/07 01:53:29;;;;;;;3.75;2.45;;;;;;;;;;513562;28;1354;-74
2023/06/07 01:54:01;;;;;;;3.60;2.50;;;;;;;;;;511409;28;1389;-73
2023/06/07 01:54:25;;;;;;;3.78;2.40;;;;;;;;;;510888;28;1098;-73
2023/06/07 01:54:50;;;;;;;3.65;2.60;;;;;;;;;;513324;28;1078;-74
2023/06/07 01:55:08;;;;;;;3.58;2.55;;;;;;;;;;512378;28;1251;-73
2023/06/07 01:55:24;;;;;;;3.80;2.20;;;;;;;;;;513261;28;1113;-73
2023/06/07 01:55:51;;;;;;;4.30;2.40;;;;;;;;;;514801;28;1709;-74
2023/06/07 01:57:05;;;;;;;3.90;2.30;;;;;;;;;;516208;28;974;-74
2023/06/07 01:57:45;;;;;;;4.60;2.30;;;;;;;;;;504868;28;1432;-74
2023/06/07 01:58:23;;;;;;;3.78;2.35;;;;;;;;;;506455;28;1354;-74
2023/06/07 01:59:04;;;;;;;4.47;2.40;;;;;;;;;;515103;28;1487;-73
2023/06/07 01:59:39;;;;;;;3.30;2.40;;;;;;;;;;517021;28;1117;-73
2023/06/07 02:00:40;;;;;;;3.33;2.40;;;;;;;;;;514813;28;1396;-73
2023/06/07 02:01:01;;;;;;;3.42;2.30;;;;;;;;;;516000;28;1117;-73
2023/06/07 02:01:21;;;;;;;3.75;2.58;;;;;;;;;;515603;28;1141;-73
2023/06/07 02:01:53;;;;;;;3.83;2.60;;;;;;;;;;513201;28;1076;-73
2023/06/07 02:02:27;;;;;;;3.70;2.40;;;;;;;;;;522258;28;1171;-73
2023/06/07 02:03:00;;;;;;;4.30;2.20;;;;;;;;;;522989;28;1183;-73
2023/06/07 02:03:33;;;;;;;3.65;2.53;;;;;;;;;;520387;28;1360;-74
2023/06/07 02:03:51;;;;;;;3.72;2.40;;;;;;;;;;520974;28;1278;-73
2023/06/07 02:04:11;;;;;;;4.40;2.53;;;;;;;;;;521164;28;1156;-73
2023/06/07 02:04:28;;;;;;;3.97;2.47;;;;;;;;;;518666;28;1169;-74
2023/06/07 02:04:48;;;;;;;3.45;2.40;;;;;;;;;;518608;28;1461;-73
2023/06/07 02:05:09;;;;;;;3.45;2.45;;;;;;;;;;518460;28;1097;-73
2023/06/07 02:05:37;;;;;;;3.40;2.40;;;;;;;;;;518878;28;1147;-74
2023/06/07 02:05:59;;;;;;;3.78;2.45;;;;;;;;;;520834;28;1401;-74
2023/06/07 02:06:20;;;;;;;3.63;2.40;;;;;;;;;;518717;28;1319;-73
2023/06/07 02:06:40;;;;;;;2.75;2.30;;;;;;;;;;506629;28;1279;-74
2023/06/07 02:07:02;;;;;;;3.20;2.30;;;;;;;;;;506316;28;1303;-74
2023/06/07 02:07:23;;;;;;;3.50;2.30;;;;;;;;;;507813;28;1429;-74
2023/06/07 02:07:45;;;;;;;3.17;2.30;;;;;;;;;;507224;28;1382;-74
2023/06/07 02:08:16;;;;;;;3.63;2.20;;;;;;;;;;509260;28;975;-74
2023/06/07 02:08:39;;;;;;;2.72;2.08;;;;;;;;;;512007;28;1331;-74
2023/06/07 02:09:00;;;;;;;3.10;2.22;;;;;;;;;;509895;28;1289;-75
2023/06/07 02:09:19;;;;;;;3.20;2.30;;;;;;;;;;511758;28;1446;-73
2023/06/07 02:10:05;;;;;;;3.55;2.50;;;;;;;;;;511746;28;1352;-73
2023/06/07 02:10:44;;;;;;;4.57;2.30;;;;;;;;;;511077;28;1356;-73
2023/06/07 02:11:04;;;;;;;4.88;2.30;;;;;;;;;;512493;28;1329;-74
2023/06/07 02:11:30;;;;;;;3.78;2.33;;;;;;;;;;512368;28;1160;-73
2023/06/07 02:11:47;;;;;;;3.53;2.40;;;;;;;;;;513950;28;1084;-72
2023/06/07 02:12:05;;;;;;;3.53;2.50;;;;;;;;;;512189;28;1510;-74
2023/06/07 02:12:46;;;;;;;3.58;2.42;;;;;;;;;;513588;28;1259;-73
2023/06/07 02:13:06;;;;;;;3.47;2.50;;;;;;;;;;504378;28;1297;-74
2023/06/07 02:13:29;;;;;;;3.33;2.50;;;;;;;;;;510929;28;1347;-75
2023/06/07 02:13:49;;;;;;;3.20;2.40;;;;;;;;;;511181;28;1448;-74
2023/06/07 02:14:15;;;;;;;3.03;2.40;;;;;;;;;;511006;28;1309;-74
2023/06/07 02:14:37;;;;;;;3.63;2.30;;;;;;;;;;513128;28;1364;-74
2023/06/07 02:14:57;;;;;;;3.33;2.15;;;;;;;;;;511630;28;1348;-74
2023/06/07 02:15:13;;;;;;;4.03;2.35;;;;;;;;;;512759;28;1209;-74
2023/06/07 02:15:31;;;;;;;3.72;2.30;;;;;;;;;;513407;28;931;-72
2023/06/07 02:15:49;;;;;;;4.30;2.30;;;;;;;;;;509637;28;1301;-73
2023/06/07 02:16:09;;;;;;;3.15;2.28;;;;;;;;;;511518;28;1485;-74
2023/06/07 02:16:37;;;;;;;3.40;2.40;;;;;;;;;;511881;28;1066;-73
2023/06/07 02:16:55;;;;;;;3.13;2.10;;;;;;;;;;514263;28;1334;-74
2023/06/07 02:17:14;;;;;;;2.70;2.30;;;;;;;;;;514195;28;1424;-74
2023/06/07 02:18:04;;;;;;;3.22;2.30;;;;;;;;;;512587;28;1310;-74
2023/06/07 02:18:28;;;;;;;3.97;2.47;;;;;;;;;;512166;28;1479;-74
2023/06/07 02:18:47;;;;;;;3.75;2.40;;;;;;;;;;512687;28;1120;-72
2023/06/07 02:19:09;;;;;;;4.10;2.40;;;;;;;;;;513064;28;1490;-73
2023/06/07 02:19:32;;;;;;;4.07;2.50;;;;;;;;;;512939;28;1371;-74
2023/06/07 02:19:48;;;;;;;3.78;2.40;;;;;;;;;;513490;28;1121;-75
2023/06/07 02:20:04;;;;;;;2.88;2.38;;;;;;;;;;512935;28;1300;-75
2023/06/07 02:20:22;;;;;;;3.50;2.50;;;;;;;;;;510536;28;1319;-73
2023/06/07 02:20:41;;;;;;;4.88;2.47;;;;;;;;;;510563;28;1442;-74
2023/06/07 02:21:02;;;;;;;4.53;2.42;;;;;;;;;;512539;28;1175;-74
2023/06/07 02:21:17;;;;;;;3.95;2.50;;;;;;;;;;512517;28;1349;-74
2023/06/07 02:21:39;;;;;;;3.85;2.67;;;;;;;;;;511028;28;1184;-74
2023/06/07 02:22:00;;;;;;;3.25;2.40;;;;;;;;;;511703;28;1378;-77
2023/06/07 02:22:16;;;;;;;4.35;2.40;;;;;;;;;;513503;28;1053;-73
2023/06/07 02:22:32;;;;;;;3.88;2.33;;;;;;;;;;512571;28;1552;-73
2023/06/07 02:22:49;;;;;;;3.37;2.30;;;;;;;;;;512691;28;1425;-74
2023/06/07 02:23:05;;;;;;;3.58;2.50;;;;;;;;;;512874;28;1074;-73
2023/06/07 02:23:24;;;;;;;4.20;2.60;;;;;;;;;;511705;28;1363;-73
2023/06/07 02:23:48;;;;;;;4.30;2.53;;;;;;;;;;509811;28;1482;-74
2023/06/07 02:24:12;;;;;;;3.25;2.35;;;;;;;;;;510687;28;1439;-74